createdAt,value
2023-03-05T00:00:26.455Z,100343.16
2023-03-05T00:01:33.610Z,100339.59
2023-03-05T00:02:35.841Z,100337.91
2023-03-05T00:03:38.779Z,100341.25
2023-03-05T00:04:40.987Z,100341.47
2023-03-05T00:05:43.144Z,100334.16
2023-03-05T00:06:45.703Z,100345.88
2023-03-05T00:07:49.110Z,100344.19
2023-03-05T00:08:53.633Z,100338.97
2023-03-05T00:09:55.810Z,100346.09
2023-03-05T00:10:58.481Z,100341.47
2023-03-05T00:12:00.938Z,100343.38
2023-03-05T00:13:03.210Z,100335.41
2023-03-05T00:14:06.554Z,100333.72
2023-03-05T00:15:09.423Z,100336.44
2023-03-05T00:16:14.659Z,100334.75
2023-03-05T00:17:16.854Z,100335.81
2023-03-05T00:18:19.721Z,100328.47
2023-03-05T00:19:22.290Z,100338.53
2023-03-05T00:20:24.517Z,100336.66
2023-03-05T00:21:33.007Z,100333.28
2023-03-05T00:22:38.692Z,100326.16
2023-03-05T00:23:40.829Z,100328.88
2023-03-05T00:24:43.786Z,100320.91
2023-03-05T00:25:47.122Z,100329.09
2023-03-05T00:26:49.885Z,100330.13
2023-03-05T00:27:53.073Z,100321.13
2023-03-05T00:28:56.800Z,100336.44
2023-03-05T00:29:59.061Z,100325.75
2023-03-05T00:31:01.613Z,100331.22
2023-03-05T00:32:03.903Z,100325.94
2023-03-05T00:33:07.335Z,100319.88
2023-03-05T00:34:12.981Z,100327.00
2023-03-05T00:35:15.201Z,100327.00
2023-03-05T00:36:17.483Z,100319.88
2023-03-05T00:37:19.961Z,100320.91
2023-03-05T00:38:22.161Z,100320.91
2023-03-05T00:39:24.310Z,100321.75
2023-03-05T00:40:26.484Z,100321.97
2023-03-05T00:41:28.748Z,100311.91
2023-03-05T00:42:31.131Z,100312.72
2023-03-05T00:43:33.339Z,100315.47
2023-03-05T00:44:35.814Z,100312.94
2023-03-05T00:45:38.011Z,100309.34
2023-03-05T00:46:40.710Z,100309.34
2023-03-05T00:47:43.216Z,100306.63
2023-03-05T00:48:45.430Z,100307.72
2023-03-05T00:49:47.729Z,100309.34
2023-03-05T00:50:49.946Z,100307.72
2023-03-05T00:51:52.133Z,100304.97
2023-03-05T00:52:54.565Z,100303.06
2023-03-05T00:53:56.873Z,100311.25
2023-03-05T00:54:59.611Z,100304.13
2023-03-05T00:56:02.095Z,100304.13
2023-03-05T00:57:05.858Z,100297.84
2023-03-05T00:58:08.041Z,100301.38
2023-03-05T00:59:10.333Z,100294.06
2023-03-05T01:00:15.174Z,100295.09
2023-03-05T01:01:17.506Z,100294.25
2023-03-05T01:02:19.752Z,100288.78
2023-03-05T01:03:22.213Z,100292.59
2023-03-05T01:04:24.664Z,100289.00
2023-03-05T01:05:26.854Z,100294.47
2023-03-05T01:06:29.591Z,100288.19
2023-03-05T01:07:31.746Z,100292.16
2023-03-05T01:08:34.803Z,100289.44
2023-03-05T01:09:37.007Z,100286.06
2023-03-05T01:10:39.243Z,100288.78
2023-03-05T01:11:41.492Z,100285.03
2023-03-05T01:12:44.482Z,100286.94
2023-03-05T01:13:47.088Z,100282.47
2023-03-05T01:14:49.639Z,100278.06
2023-03-05T01:15:51.981Z,100279.13
2023-03-05T01:16:54.766Z,100279.13
2023-03-05T01:17:56.920Z,100282.91
2023-03-05T01:18:59.280Z,100276.38
2023-03-05T01:20:01.476Z,100279.13
2023-03-05T01:21:04.051Z,100279.97
2023-03-05T01:22:06.293Z,100271.38
2023-03-05T01:23:09.294Z,100274.09
2023-03-05T01:24:12.538Z,100271.59
2023-03-05T01:25:16.866Z,100274.31
2023-03-05T01:26:19.094Z,100276.19
2023-03-05T01:27:21.277Z,100276.41
2023-03-05T01:28:23.704Z,100272.84
2023-03-05T01:29:25.929Z,100270.13
2023-03-05T01:30:28.580Z,100272.84
2023-03-05T01:31:30.965Z,100269.91
2023-03-05T01:32:34.847Z,100268.44
2023-03-05T01:33:39.166Z,100275.56
2023-03-05T01:34:42.073Z,100271.16
2023-03-05T01:35:49.723Z,100265.91
2023-03-05T01:36:51.941Z,100267.59
2023-03-05T01:37:54.486Z,100260.69
2023-03-05T01:38:56.915Z,100260.69
2023-03-05T01:39:59.112Z,100256.25
2023-03-05T01:41:02.062Z,100261.72
2023-03-05T01:42:04.762Z,100269.03
2023-03-05T01:43:23.345Z,100253.75
2023-03-05T01:44:29.252Z,100262.13
2023-03-05T01:45:32.816Z,100262.13
2023-03-05T01:46:38.873Z,100257.91
2023-03-05T01:47:41.162Z,100260.66
2023-03-05T01:48:47.839Z,100256.28
2023-03-05T01:49:50.250Z,100258.34
2023-03-05T01:50:52.588Z,100259.19
2023-03-05T01:52:09.274Z,100258.34
2023-03-05T01:53:11.702Z,100256.66
2023-03-05T01:54:17.423Z,100256.66
2023-03-05T01:55:23.557Z,100257.53
2023-03-05T01:56:27.873Z,100260.47
2023-03-05T01:57:37.676Z,100256.06
2023-03-05T01:58:40.237Z,100250.81
2023-03-05T01:59:45.987Z,100253.72
2023-03-05T02:00:51.157Z,100256.47
2023-03-05T02:01:57.162Z,100256.47
2023-03-05T02:03:03.900Z,100259.41
2023-03-05T02:04:09.067Z,100252.47
2023-03-05T02:05:16.275Z,100257.72
2023-03-05T02:06:18.768Z,100255.19
2023-03-05T02:07:21.600Z,100249.13
2023-03-05T02:08:24.336Z,100251.00
2023-03-05T02:09:28.946Z,100250.19
2023-03-05T02:10:37.963Z,100250.78
2023-03-05T02:11:40.800Z,100254.78
2023-03-05T02:12:43.379Z,100252.91
2023-03-05T02:13:46.013Z,100252.25
2023-03-05T02:14:51.223Z,100244.09
2023-03-05T02:15:57.171Z,100238.03
2023-03-05T02:17:03.449Z,100236.34
2023-03-05T02:18:07.604Z,100241.78
2023-03-05T02:19:11.924Z,100244.72
2023-03-05T02:20:27.582Z,100230.47
2023-03-05T02:21:38.427Z,100232.34
2023-03-05T02:22:40.658Z,100236.13
2023-03-05T02:23:42.803Z,100237.81
2023-03-05T02:24:45.076Z,100234.22
2023-03-05T02:25:47.352Z,100232.75
2023-03-05T02:26:49.793Z,100232.75
2023-03-05T02:28:37.665Z,100232.75
2023-03-05T02:29:44.846Z,100227.50
2023-03-05T02:30:47.017Z,100212.00
2023-03-05T02:31:49.271Z,100216.81
2023-03-05T02:32:51.578Z,100222.50
2023-03-05T02:33:56.363Z,100219.75
2023-03-05T02:34:59.915Z,100217.25
2023-03-05T02:36:03.302Z,100215.34
2023-03-05T02:37:09.171Z,100210.72
2023-03-05T02:38:15.438Z,100216.19
2023-03-05T02:39:17.987Z,100221.03
2023-03-05T02:40:20.295Z,100215.56
2023-03-05T02:41:23.143Z,100213.88
2023-03-05T02:42:25.483Z,100215.56
2023-03-05T02:43:28.692Z,100209.06
2023-03-05T02:44:30.893Z,100215.56
2023-03-05T02:45:33.452Z,100216.63
2023-03-05T02:46:35.854Z,100210.34
2023-03-05T02:47:38.364Z,100211.16
2023-03-05T02:48:41.697Z,100217.44
2023-03-05T02:49:46.986Z,100211.38
2023-03-05T02:50:49.560Z,100207.78
2023-03-05T02:51:52.610Z,100200.69
2023-03-05T02:52:54.855Z,100206.97
2023-03-05T02:53:57.724Z,100212.41
2023-03-05T02:55:02.249Z,100200.69
2023-03-05T02:56:06.120Z,100200.03
2023-03-05T02:57:10.326Z,100201.94
2023-03-05T02:58:12.511Z,100206.75
2023-03-05T02:59:14.823Z,100199.81
2023-03-05T03:00:17.610Z,100208.66
2023-03-05T03:01:20.040Z,100211.78
2023-03-05T03:02:22.853Z,100204.66
2023-03-05T03:03:25.556Z,100197.53
2023-03-05T03:04:27.919Z,100207.56
2023-03-05T03:05:30.217Z,100214.91
2023-03-05T03:06:32.405Z,100209.47
2023-03-05T03:07:36.638Z,100211.38
2023-03-05T03:08:38.841Z,100211.38
2023-03-05T03:09:43.003Z,100214.28
2023-03-05T03:10:45.245Z,100212.41
2023-03-05T03:11:47.785Z,100202.34
2023-03-05T03:12:49.964Z,100204.22
2023-03-05T03:13:52.144Z,100206.09
2023-03-05T03:14:54.290Z,100208.00
2023-03-05T03:16:11.131Z,100213.25
2023-03-05T03:17:16.393Z,100209.91
2023-03-05T03:18:18.807Z,100202.75
2023-03-05T03:19:21.050Z,100212.81
2023-03-05T03:20:23.512Z,100208.22
2023-03-05T03:21:27.107Z,100203.81
2023-03-05T03:22:29.845Z,100206.75
2023-03-05T03:23:32.058Z,100203.81
2023-03-05T03:24:34.962Z,100211.16
2023-03-05T03:25:37.239Z,100196.47
2023-03-05T03:26:39.480Z,100206.53
2023-03-05T03:27:41.686Z,100204.84
2023-03-05T03:28:44.430Z,100204.00
2023-03-05T03:29:46.555Z,100195.84
2023-03-05T03:30:48.934Z,100188.50
2023-03-05T03:31:51.428Z,100196.06
2023-03-05T03:32:53.674Z,100198.56
2023-03-05T03:33:56.148Z,100199.81
2023-03-05T03:34:58.670Z,100202.53
2023-03-05T03:36:01.076Z,100199.81
2023-03-05T03:37:03.314Z,100188.91
2023-03-05T03:38:05.717Z,100196.25
2023-03-05T03:39:10.046Z,100182.84
2023-03-05T03:40:12.515Z,100192.69
2023-03-05T03:41:14.656Z,100175.69
2023-03-05T03:42:18.823Z,100186.59
2023-03-05T03:43:20.993Z,100193.13
2023-03-05T03:44:23.383Z,100189.53
2023-03-05T03:45:25.669Z,100187.84
2023-03-05T03:46:27.925Z,100177.81
2023-03-05T03:47:31.104Z,100188.72
2023-03-05T03:48:33.643Z,100188.72
2023-03-05T03:49:35.899Z,100179.50
2023-03-05T03:50:42.554Z,100187.84
2023-03-05T03:51:44.856Z,100188.06
2023-03-05T03:52:47.438Z,100187.22
2023-03-05T03:53:49.678Z,100186.38
2023-03-05T03:54:53.191Z,100184.72
2023-03-05T03:55:58.727Z,100179.28
2023-03-05T03:57:00.887Z,100182.00
2023-03-05T03:58:03.554Z,100179.28
2023-03-05T03:59:05.990Z,100186.38
2023-03-05T04:00:09.196Z,100183.88
2023-03-05T04:01:14.290Z,100188.50
2023-03-05T04:02:16.553Z,100174.88
2023-03-05T04:03:18.764Z,100180.31
2023-03-05T04:04:20.988Z,100184.91
2023-03-05T04:05:23.251Z,100166.91
2023-03-05T04:06:25.740Z,100181.34
2023-03-05T04:07:27.879Z,100172.34
2023-03-05T04:08:30.222Z,100168.78
2023-03-05T04:09:32.452Z,100177.16
2023-03-05T04:10:34.609Z,100174.44
2023-03-05T04:11:37.735Z,100175.47
2023-03-05T04:12:43.074Z,100171.09
2023-03-05T04:13:48.898Z,100162.06
2023-03-05T04:14:51.299Z,100172.34
2023-03-05T04:15:54.401Z,100174.00
2023-03-05T04:16:56.856Z,100170.44
2023-03-05T04:17:59.443Z,100164.19
2023-03-05T04:19:01.624Z,100164.19
2023-03-05T04:20:05.979Z,100169.63
2023-03-05T04:21:08.373Z,100169.63
2023-03-05T04:22:12.744Z,100167.09
2023-03-05T04:23:15.305Z,100160.81
2023-03-05T04:24:17.558Z,100158.91
2023-03-05T04:25:19.796Z,100151.81
2023-03-05T04:26:25.203Z,100160.81
2023-03-05T04:27:27.373Z,100159.13
2023-03-05T04:28:29.584Z,100159.97
2023-03-05T04:29:32.196Z,100155.38
2023-03-05T04:30:34.431Z,100165.63
2023-03-05T04:31:36.797Z,100152.63
2023-03-05T04:32:39.123Z,100157.44
2023-03-05T04:33:41.363Z,100157.25
2023-03-05T04:34:43.495Z,100152.00
2023-03-05T04:35:45.836Z,100146.53
2023-03-05T04:36:49.039Z,100145.94
2023-03-05T04:37:51.325Z,100139.63
2023-03-05T04:38:53.455Z,100142.34
2023-03-05T04:39:55.624Z,100131.47
2023-03-05T04:40:59.213Z,100144.25
2023-03-05T04:42:01.397Z,100143.44
2023-03-05T04:43:04.343Z,100143.44
2023-03-05T04:44:07.559Z,100145.06
2023-03-05T04:45:11.220Z,100140.69
2023-03-05T04:46:13.595Z,100141.53
2023-03-05T04:47:17.206Z,100141.53
2023-03-05T04:48:19.446Z,100146.16
2023-03-05T04:49:21.777Z,100139.84
2023-03-05T04:50:24.443Z,100142.56
2023-03-05T04:51:26.624Z,100141.75
2023-03-05T04:52:29.147Z,100131.88
2023-03-05T04:53:31.293Z,100136.28
2023-03-05T04:54:33.433Z,100131.66
2023-03-05T04:55:35.678Z,100140.88
2023-03-05T04:56:37.818Z,100139.00
2023-03-05T04:57:40.137Z,100140.06
2023-03-05T04:58:42.401Z,100150.13
2023-03-05T04:59:44.575Z,100141.09
2023-03-05T05:00:47.397Z,100136.50
2023-03-05T05:01:49.583Z,100136.50
2023-03-05T05:02:52.473Z,100141.94
2023-03-05T05:03:54.683Z,100130.19
2023-03-05T05:04:56.956Z,100134.81
2023-03-05T05:06:00.327Z,100132.31
2023-03-05T05:07:02.582Z,100133.13
2023-03-05T05:08:04.937Z,100132.91
2023-03-05T05:09:07.072Z,100135.03
2023-03-05T05:10:11.021Z,100131.44
2023-03-05T05:11:14.886Z,100132.50
2023-03-05T05:12:17.217Z,100141.53
2023-03-05T05:13:19.714Z,100139.84
2023-03-05T05:14:22.189Z,100140.66
2023-03-05T05:15:24.513Z,100142.56
2023-03-05T05:16:26.744Z,100138.78
2023-03-05T05:17:33.177Z,100140.66
2023-03-05T05:18:35.522Z,100129.97
2023-03-05T05:19:37.799Z,100138.16
2023-03-05T05:20:40.175Z,100133.56
2023-03-05T05:21:42.641Z,100126.22
2023-03-05T05:22:44.823Z,100127.25
2023-03-05T05:23:47.055Z,100125.38
2023-03-05T05:24:49.401Z,100124.53
2023-03-05T05:25:59.168Z,100127.25
2023-03-05T05:27:01.390Z,100127.47
2023-03-05T05:28:03.850Z,100120.34
2023-03-05T05:29:06.138Z,100124.75
2023-03-05T05:30:10.228Z,100126.66
2023-03-05T05:31:14.985Z,100123.91
2023-03-05T05:32:18.331Z,100117.84
2023-03-05T05:33:21.285Z,100114.28
2023-03-05T05:34:25.461Z,100117.00
2023-03-05T05:35:27.688Z,100118.03
2023-03-05T05:36:30.008Z,100121.59
2023-03-05T05:37:33.414Z,100116.38
2023-03-05T05:38:35.741Z,100114.88
2023-03-05T05:39:38.661Z,100123.06
2023-03-05T05:40:41.405Z,100123.91
2023-03-05T05:41:43.777Z,100124.75
2023-03-05T05:42:46.174Z,100127.69
2023-03-05T05:43:48.468Z,100112.38
2023-03-05T05:44:50.881Z,100124.09
2023-03-05T05:45:53.234Z,100127.03
2023-03-05T05:46:55.477Z,100125.16
2023-03-05T05:47:57.828Z,100126.00
2023-03-05T05:49:00.076Z,100124.31
2023-03-05T05:50:02.380Z,100130.63
2023-03-05T05:51:12.301Z,100128.72
2023-03-05T05:52:14.434Z,100131.44
2023-03-05T05:53:16.623Z,100124.31
2023-03-05T05:54:18.795Z,100126.19
2023-03-05T05:55:21.630Z,100126.00
2023-03-05T05:56:23.873Z,100127.69
2023-03-05T05:57:26.068Z,100129.75
2023-03-05T05:58:28.222Z,100126.19
2023-03-05T05:59:30.421Z,100126.00
2023-03-05T06:00:32.628Z,100126.19
2023-03-05T06:01:35.395Z,100125.16
2023-03-05T06:02:39.411Z,100120.97
2023-03-05T06:03:43.523Z,100118.03
2023-03-05T06:04:46.674Z,100119.91
2023-03-05T06:05:48.967Z,100123.47
2023-03-05T06:06:51.152Z,100120.53
2023-03-05T06:07:53.410Z,100114.28
2023-03-05T06:08:56.243Z,100118.66
2023-03-05T06:09:58.537Z,100120.53
2023-03-05T06:11:00.666Z,100114.06
2023-03-05T06:12:03.534Z,100120.34
2023-03-05T06:13:05.771Z,100120.53
2023-03-05T06:14:08.953Z,100123.91
2023-03-05T06:15:11.130Z,100117.59
2023-03-05T06:16:16.693Z,100111.13
2023-03-05T06:17:29.786Z,100124.75
2023-03-05T06:18:34.219Z,100118.25
2023-03-05T06:19:36.368Z,100122.84
2023-03-05T06:20:38.590Z,100119.09
2023-03-05T06:21:40.782Z,100120.13
2023-03-05T06:22:43.035Z,100117.22
2023-03-05T06:23:46.876Z,100121.59
2023-03-05T06:24:49.121Z,100122.44
2023-03-05T06:25:51.893Z,100118.88
2023-03-05T06:26:56.556Z,100128.94
2023-03-05T06:27:58.819Z,100126.22
2023-03-05T06:29:01.095Z,100115.09
2023-03-05T06:30:05.687Z,100120.56
2023-03-05T06:31:11.362Z,100117.63
2023-03-05T06:32:13.537Z,100116.78
2023-03-05T06:33:15.925Z,100114.72
2023-03-05T06:34:18.101Z,100117.44
2023-03-05T06:35:20.365Z,100119.31
2023-03-05T06:36:24.318Z,100124.53
2023-03-05T06:37:26.512Z,100122.66
2023-03-05T06:38:28.679Z,100119.72
2023-03-05T06:39:32.068Z,100128.50
2023-03-05T06:40:34.838Z,100123.06
2023-03-05T06:41:36.965Z,100121.19
2023-03-05T06:42:39.116Z,100121.19
2023-03-05T06:43:44.408Z,100121.00
2023-03-05T06:44:48.256Z,100113.66
2023-03-05T06:46:02.331Z,100114.50
2023-03-05T06:47:05.615Z,100123.50
2023-03-05T06:48:07.772Z,100119.75
2023-03-05T06:49:10.637Z,100121.41
2023-03-05T06:50:13.242Z,100123.09
2023-03-05T06:51:16.923Z,100124.75
2023-03-05T06:52:19.075Z,100124.56
2023-03-05T06:53:21.537Z,100121.00
2023-03-05T06:54:23.799Z,100120.78
2023-03-05T06:55:25.974Z,100116.19
2023-03-05T06:56:28.531Z,100129.38
2023-03-05T06:57:30.654Z,100121.44
2023-03-05T06:58:32.931Z,100120.38
2023-03-05T06:59:35.102Z,100117.44
2023-03-05T07:00:37.234Z,100122.88
2023-03-05T07:01:39.588Z,100123.53
2023-03-05T07:02:41.938Z,100121.44
2023-03-05T07:03:45.013Z,100124.38
2023-03-05T07:04:47.232Z,100117.66
2023-03-05T07:05:49.659Z,100121.22
2023-03-05T07:06:51.874Z,100125.63
2023-03-05T07:07:54.021Z,100121.00
2023-03-05T07:08:57.692Z,100122.69
2023-03-05T07:10:00.567Z,100121.41
2023-03-05T07:11:03.363Z,100123.31
2023-03-05T07:12:05.750Z,100114.28
2023-03-05T07:13:09.095Z,100124.16
2023-03-05T07:14:11.301Z,100125.84
2023-03-05T07:15:13.473Z,100117.88
2023-03-05T07:16:18.943Z,100123.09
2023-03-05T07:17:21.517Z,100116.63
2023-03-05T07:18:23.677Z,100127.50
2023-03-05T07:19:25.810Z,100117.66
2023-03-05T07:20:28.320Z,100119.13
2023-03-05T07:21:36.885Z,100119.13
2023-03-05T07:22:40.537Z,100115.56
2023-03-05T07:23:42.731Z,100119.13
2023-03-05T07:24:45.146Z,100110.94
2023-03-05T07:25:47.308Z,100119.13
2023-03-05T07:26:49.459Z,100119.13
2023-03-05T07:27:51.972Z,100118.91
2023-03-05T07:28:55.082Z,100118.91
2023-03-05T07:29:57.205Z,100120.59
2023-03-05T07:31:02.674Z,100115.97
2023-03-05T07:32:05.382Z,100121.63
2023-03-05T07:33:07.628Z,100115.97
2023-03-05T07:34:10.268Z,100110.34
2023-03-05T07:35:13.466Z,100115.78
2023-03-05T07:36:16.733Z,100117.88
2023-03-05T07:37:18.881Z,100114.31
2023-03-05T07:38:21.028Z,100108.88
2023-03-05T07:39:23.592Z,100109.47
2023-03-05T07:40:25.770Z,100106.75
2023-03-05T07:41:28.154Z,100109.28
2023-03-05T07:42:31.710Z,100110.94
2023-03-05T07:43:45.917Z,100104.66
2023-03-05T07:44:48.196Z,100105.28
2023-03-05T07:45:51.272Z,100102.38
2023-03-05T07:46:53.533Z,100102.97
2023-03-05T07:47:56.300Z,100098.56
2023-03-05T07:48:59.086Z,100092.06
2023-03-05T07:50:01.824Z,100105.69
2023-03-05T07:51:06.252Z,100104.66
2023-03-05T07:52:09.194Z,100103.41
2023-03-05T07:53:11.653Z,100101.50
2023-03-05T07:54:13.820Z,100096.91
2023-03-05T07:55:17.226Z,100099.63
2023-03-05T07:56:24.646Z,100096.69
2023-03-05T07:57:26.837Z,100096.47
2023-03-05T07:58:29.255Z,100097.94
2023-03-05T07:59:33.510Z,100099.63
2023-03-05T08:00:35.807Z,100091.22
2023-03-05T08:01:38.463Z,100103.81
2023-03-05T08:02:40.686Z,100104.44
2023-03-05T08:03:44.589Z,100105.25
2023-03-05T08:04:46.819Z,100098.78
2023-03-05T08:05:49.542Z,100096.88
2023-03-05T08:06:51.778Z,100099.59
2023-03-05T08:07:53.961Z,100101.28
2023-03-05T08:08:56.178Z,100096.44
2023-03-05T08:09:59.658Z,100097.28
2023-03-05T08:11:10.709Z,100095.41
2023-03-05T08:12:13.032Z,100096.44
2023-03-05T08:13:15.357Z,100095.41
2023-03-05T08:14:17.601Z,100096.25
2023-03-05T08:15:19.741Z,100095.16
2023-03-05T08:16:22.338Z,100088.06
2023-03-05T08:17:24.506Z,100087.00
2023-03-05T08:18:26.792Z,100087.84
2023-03-05T08:19:29.048Z,100090.34
2023-03-05T08:20:31.259Z,100092.88
2023-03-05T08:21:35.859Z,100088.28
2023-03-05T08:22:38.867Z,100083.19
2023-03-05T08:23:41.394Z,100087.63
2023-03-05T08:24:43.666Z,100081.75
2023-03-05T08:25:45.841Z,100070.63
2023-03-05T08:26:50.497Z,100082.78
2023-03-05T08:27:52.668Z,100080.66
2023-03-05T08:28:55.270Z,100081.94
2023-03-05T08:29:57.658Z,100084.00
2023-03-05T08:30:59.858Z,100081.47
2023-03-05T08:32:02.076Z,100081.88
2023-03-05T08:33:04.348Z,100075.78
2023-03-05T08:34:07.287Z,100078.69
2023-03-05T08:35:11.974Z,100071.56
2023-03-05T08:36:14.276Z,100069.25
2023-03-05T08:37:16.416Z,100065.63
2023-03-05T08:38:21.012Z,100061.19
2023-03-05T08:39:24.632Z,100071.44
2023-03-05T08:40:26.790Z,100063.44
2023-03-05T08:41:29.619Z,100069.94
2023-03-05T08:42:31.865Z,100064.44
2023-03-05T08:43:34.610Z,100060.59
2023-03-05T08:44:36.786Z,100058.06
2023-03-05T08:45:40.076Z,100057.16
2023-03-05T08:46:42.405Z,100064.47
2023-03-05T08:47:44.610Z,100062.53
2023-03-05T08:48:47.080Z,100060.81
2023-03-05T08:49:49.252Z,100068.94
2023-03-05T08:50:53.355Z,100063.44
2023-03-05T08:51:55.670Z,100062.31
2023-03-05T08:52:57.897Z,100068.16
2023-03-05T08:54:00.453Z,100067.28
2023-03-05T08:55:02.841Z,100075.66
2023-03-05T08:56:05.863Z,100067.63
2023-03-05T08:57:08.582Z,100062.50
2023-03-05T08:58:10.798Z,100067.31
2023-03-05T08:59:14.022Z,100067.91
2023-03-05T09:00:16.619Z,100066.84
2023-03-05T09:01:18.788Z,100070.22
2023-03-05T09:02:21.098Z,100061.78
2023-03-05T09:03:23.676Z,100054.19
2023-03-05T09:04:26.012Z,100063.22
2023-03-05T09:05:28.221Z,100062.19
2023-03-05T09:06:30.536Z,100061.94
2023-03-05T09:07:33.693Z,100059.44
2023-03-05T09:08:36.809Z,100064.69
2023-03-05T09:09:40.268Z,100063.00
2023-03-05T09:10:47.484Z,100053.75
2023-03-05T09:11:49.983Z,100060.25
2023-03-05T09:12:52.261Z,100051.00
2023-03-05T09:13:54.447Z,100054.78
2023-03-05T09:14:57.003Z,100061.31
2023-03-05T09:16:01.524Z,100051.66
2023-03-05T09:17:03.963Z,100062.00
2023-03-05T09:18:09.084Z,100051.31
2023-03-05T09:19:15.235Z,100056.16
2023-03-05T09:20:18.320Z,100052.78
2023-03-05T09:21:22.543Z,100054.13
2023-03-05T09:22:24.709Z,100050.75
2023-03-05T09:23:26.882Z,100048.25
2023-03-05T09:24:29.035Z,100057.72
2023-03-05T09:25:31.295Z,100049.75
2023-03-05T09:26:33.678Z,100050.81
2023-03-05T09:27:36.649Z,100046.63
2023-03-05T09:28:39.731Z,100044.13
2023-03-05T09:29:43.223Z,100047.28
2023-03-05T09:30:45.521Z,100042.88
2023-03-05T09:31:51.917Z,100039.31
2023-03-05T09:32:54.840Z,100040.38
2023-03-05T09:33:57.048Z,100041.66
2023-03-05T09:35:01.546Z,100037.28
2023-03-05T09:36:05.012Z,100034.75
2023-03-05T09:37:09.327Z,100039.16
2023-03-05T09:38:11.541Z,100026.78
2023-03-05T09:39:13.733Z,100027.84
2023-03-05T09:40:19.434Z,100037.72
2023-03-05T09:41:59.040Z,100035.59
2023-03-05T09:43:30.509Z,100029.09
2023-03-05T09:44:48.532Z,100026.94
2023-03-05T09:45:59.979Z,100030.31
2023-03-05T09:47:14.846Z,100018.09
2023-03-05T09:48:22.906Z,100027.50
2023-03-05T09:49:33.640Z,100024.53
2023-03-05T09:50:43.627Z,100026.00
2023-03-05T09:51:47.172Z,100025.09
2023-03-05T09:52:57.269Z,100021.31
2023-03-05T09:54:13.401Z,100026.31
2023-03-05T09:55:29.594Z,100018.25
2023-03-05T09:56:36.067Z,100026.22
2023-03-05T09:57:51.543Z,100018.41
2023-03-05T09:58:57.955Z,100015.69
2023-03-05T10:00:08.720Z,100013.34
2023-03-05T10:01:44.758Z,100011.19
2023-03-05T10:03:00.953Z,100006.34
2023-03-05T10:04:09.540Z,100013.03
2023-03-05T10:05:20.272Z,100010.88
2023-03-05T10:06:22.404Z,99997.00
2023-03-05T10:07:38.648Z,100000.94
2023-03-05T10:08:54.440Z,99988.94
2023-03-05T10:10:14.368Z,99993.13
2023-03-05T10:11:29.258Z,99991.84
2023-03-05T10:12:52.779Z,100000.41
2023-03-05T10:13:55.043Z,100001.84
2023-03-05T10:15:00.727Z,99993.44
2023-03-05T10:16:27.680Z,99996.75
2023-03-05T10:17:57.612Z,99989.97
2023-03-05T10:19:05.456Z,99983.22
2023-03-05T10:20:27.710Z,99988.44
2023-03-05T10:21:45.019Z,99988.00
2023-03-05T10:22:50.217Z,99976.81
2023-03-05T10:24:25.365Z,99980.78
2023-03-05T10:26:05.642Z,99972.69
2023-03-05T10:27:19.326Z,99973.28
2023-03-05T10:28:34.782Z,99975.09
2023-03-05T10:30:03.780Z,99981.78
2023-03-05T10:31:21.705Z,99972.06
2023-03-05T10:32:43.418Z,99977.88
2023-03-05T10:34:00.631Z,99975.03
2023-03-05T10:35:11.070Z,99976.47
2023-03-05T10:36:27.497Z,99970.53
2023-03-05T10:37:55.610Z,99972.81
2023-03-05T10:39:51.803Z,99973.78
2023-03-05T10:40:55.939Z,99967.88
2023-03-05T10:42:18.511Z,99967.38
2023-03-05T10:43:39.409Z,99964.19
2023-03-05T10:44:45.270Z,99968.38
2023-03-05T10:45:53.558Z,99965.38
2023-03-05T10:46:58.739Z,99968.72
2023-03-05T10:48:28.493Z,99965.16
2023-03-05T10:49:36.827Z,99958.59
2023-03-05T10:50:49.221Z,99964.91
2023-03-05T10:52:05.536Z,99955.63
2023-03-05T10:53:25.952Z,99958.13
2023-03-05T10:54:30.890Z,99955.13
2023-03-05T10:55:33.696Z,99958.13
2023-03-05T10:56:38.389Z,99962.78
2023-03-05T10:57:41.566Z,99952.28
2023-03-05T10:58:43.785Z,99942.41
2023-03-05T10:59:57.540Z,99951.69
2023-03-05T11:01:22.141Z,99956.31
2023-03-05T11:02:25.135Z,99947.28
2023-03-05T11:03:47.113Z,99938.44
2023-03-05T11:04:51.887Z,99940.13
2023-03-05T11:06:02.403Z,99954.06
2023-03-05T11:07:33.022Z,99947.16
2023-03-05T11:08:36.360Z,99959.78
2023-03-05T11:09:39.896Z,99961.66
2023-03-05T11:10:42.093Z,99950.94
2023-03-05T11:12:01.658Z,99958.09
2023-03-05T11:13:27.566Z,99952.03
2023-03-05T11:14:33.315Z,99945.72
2023-03-05T11:15:36.763Z,99944.88
2023-03-05T11:16:51.253Z,99955.25
2023-03-05T11:18:16.659Z,99947.88
2023-03-05T11:19:33.431Z,99939.84
2023-03-05T11:20:37.149Z,99937.94
2023-03-05T11:21:39.729Z,99946.16
2023-03-05T11:22:43.095Z,99944.50
2023-03-05T11:24:04.433Z,99937.56
2023-03-05T11:25:20.145Z,99921.16
2023-03-05T11:26:23.342Z,99929.38
2023-03-05T11:27:38.573Z,99934.84
2023-03-05T11:28:57.761Z,99930.44
2023-03-05T11:30:00.164Z,99926.88
2023-03-05T11:31:17.333Z,99925.19
2023-03-05T11:32:28.545Z,99927.09
2023-03-05T11:33:32.291Z,99923.28
2023-03-05T11:34:36.071Z,99921.38
2023-03-05T11:35:42.171Z,99924.13
2023-03-05T11:36:53.418Z,99920.31
2023-03-05T11:38:01.528Z,99923.88
2023-03-05T11:39:25.299Z,99918.16
2023-03-05T11:40:32.199Z,99918.16
2023-03-05T11:41:37.199Z,99918.78
2023-03-05T11:42:41.127Z,99905.94
2023-03-05T11:43:44.075Z,99908.69
2023-03-05T11:44:53.391Z,99911.16
2023-03-05T11:46:03.340Z,99904.38
2023-03-05T11:47:28.623Z,99912.16
2023-03-05T11:48:36.296Z,99910.25
2023-03-05T11:49:45.117Z,99910.00
2023-03-05T11:50:52.825Z,99914.16
2023-03-05T11:52:08.565Z,99913.09
2023-03-05T11:53:20.710Z,99911.19
2023-03-05T11:54:30.427Z,99906.56
2023-03-05T11:55:45.112Z,99909.06
2023-03-05T11:56:47.397Z,99908.00
2023-03-05T11:58:11.669Z,99891.56
2023-03-05T11:59:18.540Z,99895.34
2023-03-05T12:00:32.570Z,99893.44
2023-03-05T12:01:40.164Z,99890.69
2023-03-05T12:02:43.177Z,99892.88
2023-03-05T12:03:45.696Z,99889.28
2023-03-05T12:04:49.844Z,99898.34
2023-03-05T12:05:57.774Z,99884.63
2023-03-05T12:07:02.831Z,99884.63
2023-03-05T12:08:06.467Z,99883.78
2023-03-05T12:09:16.305Z,99885.72
2023-03-05T12:10:24.480Z,99879.41
2023-03-05T12:11:30.602Z,99880.47
2023-03-05T12:12:44.584Z,99872.25
2023-03-05T12:14:36.248Z,99873.94
2023-03-05T12:15:57.458Z,99866.78
2023-03-05T12:17:14.120Z,99869.75
2023-03-05T12:18:32.529Z,99868.91
2023-03-05T12:19:48.289Z,99862.59
2023-03-05T12:21:03.381Z,99863.69
2023-03-05T12:22:16.775Z,99858.44
2023-03-05T12:23:20.954Z,99857.38
2023-03-05T12:24:28.175Z,99855.09
2023-03-05T12:25:46.586Z,99858.94
2023-03-05T12:27:03.785Z,99851.53
2023-03-05T12:28:31.834Z,99851.78